sensor_id;sensor_type;location;lat;lon;timestamp;P1;durP1;ratioP1;P2;durP2;ratioP2
79755;SDS011;69239;50.678;12.280;2023-11-22T00:01:59;7.60;;;5.03;;
79755;SDS011;69239;50.678;12.280;2023-11-22T00:04:24;6.93;;;4.95;;
79755;SDS011;69239;50.678;12.280;2023-11-22T00:06:50;8.32;;;5.28;;
79755;SDS011;69239;50.678;12.280;2023-11-22T00:09:15;9.13;;;5.13;;
79755;SDS011;69239;50.678;12.280;2023-11-22T00:11:40;8.68;;;5.65;;
79755;SDS011;69239;50.678;12.280;2023-11-22T00:14:06;8.30;;;4.80;;
79755;SDS011;69239;50.678;12.280;2023-11-22T00:16:31;8.43;;;4.88;;
79755;SDS011;69239;50.678;12.280;2023-11-22T00:18:57;11.00;;;6.43;;
79755;SDS011;69239;50.678;12.280;2023-11-22T00:21:22;12.00;;;6.80;;
79755;SDS011;69239;50.678;12.280;2023-11-22T00:23:48;9.20;;;5.68;;
79755;SDS011;69239;50.678;12.280;2023-11-22T00:26:13;10.25;;;5.90;;
79755;SDS011;69239;50.678;12.280;2023-11-22T00:28:40;11.93;;;6.68;;
79755;SDS011;69239;50.678;12.280;2023-11-22T00:31:05;12.63;;;6.95;;
79755;SDS011;69239;50.678;12.280;2023-11-22T00:33:31;11.90;;;6.50;;
79755;SDS011;69239;50.678;12.280;2023-11-22T00:35:57;10.88;;;6.97;;
79755;SDS011;69239;50.678;12.280;2023-11-22T00:38:23;14.43;;;7.72;;
79755;SDS011;69239;50.678;12.280;2023-11-22T00:40:49;12.05;;;6.80;;
79755;SDS011;69239;50.678;12.280;2023-11-22T00:43:15;13.23;;;6.93;;
79755;SDS011;69239;50.678;12.280;2023-11-22T00:45:41;11.38;;;6.47;;
79755;SDS011;69239;50.678;12.280;2023-11-22T00:48:06;11.07;;;7.07;;
79755;SDS011;69239;50.678;12.280;2023-11-22T00:50:32;11.07;;;6.78;;
79755;SDS011;69239;50.678;12.280;2023-11-22T00:52:57;16.35;;;7.80;;
79755;SDS011;69239;50.678;12.280;2023-11-22T00:55:23;20.08;;;8.32;;
79755;SDS011;69239;50.678;12.280;2023-11-22T00:57:48;14.55;;;7.88;;
79755;SDS011;69239;50.678;12.280;2023-11-22T01:00:13;15.88;;;8.75;;
79755;SDS011;69239;50.678;12.280;2023-11-22T01:02:40;14.65;;;7.68;;
79755;SDS011;69239;50.678;12.280;2023-11-22T01:05:06;14.93;;;7.50;;
79755;SDS011;69239;50.678;12.280;2023-11-22T01:07:42;17.02;;;9.00;;
79755;SDS011;69239;50.678;12.280;2023-11-22T01:10:07;16.35;;;8.15;;
79755;SDS011;69239;50.678;12.280;2023-11-22T01:12:33;16.05;;;7.57;;
79755;SDS011;69239;50.678;12.280;2023-11-22T01:14:58;15.45;;;8.40;;
79755;SDS011;69239;50.678;12.280;2023-11-22T01:17:24;12.93;;;7.43;;
79755;SDS011;69239;50.678;12.280;2023-11-22T01:19:50;16.30;;;8.77;;
79755;SDS011;69239;50.678;12.280;2023-11-22T01:22:18;14.95;;;7.63;;
79755;SDS011;69239;50.678;12.280;2023-11-22T01:24:43;13.70;;;7.22;;
79755;SDS011;69239;50.678;12.280;2023-11-22T01:27:09;14.45;;;6.88;;
79755;SDS011;69239;50.678;12.280;2023-11-22T01:29:34;16.65;;;7.65;;
79755;SDS011;69239;50.678;12.280;2023-11-22T01:32:00;12.07;;;6.95;;
79755;SDS011;69239;50.678;12.280;2023-11-22T01:34:25;16.55;;;7.20;;
79755;SDS011;69239;50.678;12.280;2023-11-22T01:36:51;14.05;;;7.15;;
79755;SDS011;69239;50.678;12.280;2023-11-22T01:39:17;16.38;;;8.23;;
79755;SDS011;69239;50.678;12.280;2023-11-22T01:41:45;15.75;;;7.75;;
79755;SDS011;69239;50.678;12.280;2023-11-22T01:46:40;16.48;;;7.65;;
79755;SDS011;69239;50.678;12.280;2023-11-22T01:49:05;14.50;;;8.18;;
79755;SDS011;69239;50.678;12.280;2023-11-22T01:51:31;14.60;;;8.18;;
79755;SDS011;69239;50.678;12.280;2023-11-22T01:53:56;17.50;;;8.45;;
79755;SDS011;69239;50.678;12.280;2023-11-22T01:56:24;16.50;;;8.82;;
79755;SDS011;69239;50.678;12.280;2023-11-22T01:58:51;20.55;;;8.75;;
79755;SDS011;69239;50.678;12.280;2023-11-22T02:01:19;15.73;;;8.43;;
79755;SDS011;69239;50.678;12.280;2023-11-22T02:03:45;18.35;;;9.30;;
79755;SDS011;69239;50.678;12.280;2023-11-22T02:06:12;18.73;;;8.52;;
79755;SDS011;69239;50.678;12.280;2023-11-22T02:08:41;14.65;;;7.90;;
79755;SDS011;69239;50.678;12.280;2023-11-22T02:11:06;13.57;;;6.93;;
79755;SDS011;69239;50.678;12.280;2023-11-22T02:13:31;18.17;;;7.70;;
79755;SDS011;69239;50.678;12.280;2023-11-22T02:15:57;13.45;;;6.80;;
79755;SDS011;69239;50.678;12.280;2023-11-22T02:18:25;14.75;;;7.05;;
79755;SDS011;69239;50.678;12.280;2023-11-22T02:20:51;14.48;;;7.70;;
79755;SDS011;69239;50.678;12.280;2023-11-22T02:23:16;14.50;;;7.43;;
79755;SDS011;69239;50.678;12.280;2023-11-22T02:25:42;13.55;;;7.10;;
79755;SDS011;69239;50.678;12.280;2023-11-22T02:28:08;12.55;;;7.10;;
79755;SDS011;69239;50.678;12.280;2023-11-22T02:30:33;14.10;;;7.57;;
79755;SDS011;69239;50.678;12.280;2023-11-22T02:32:59;14.80;;;7.70;;
79755;SDS011;69239;50.678;12.280;2023-11-22T02:35:24;13.57;;;7.65;;
79755;SDS011;69239;50.678;12.280;2023-11-22T02:37:52;15.40;;;7.75;;
79755;SDS011;69239;50.678;12.280;2023-11-22T02:40:20;14.70;;;7.72;;
79755;SDS011;69239;50.678;12.280;2023-11-22T02:42:47;14.98;;;7.47;;
79755;SDS011;69239;50.678;12.280;2023-11-22T02:45:14;15.68;;;6.95;;
79755;SDS011;69239;50.678;12.280;2023-11-22T02:47:40;12.98;;;6.90;;
79755;SDS011;69239;50.678;12.280;2023-11-22T02:50:06;14.15;;;7.90;;
79755;SDS011;69239;50.678;12.280;2023-11-22T02:52:32;13.45;;;7.10;;
79755;SDS011;69239;50.678;12.280;2023-11-22T02:54:58;12.60;;;6.85;;
79755;SDS011;69239;50.678;12.280;2023-11-22T02:57:23;13.93;;;7.40;;
79755;SDS011;69239;50.678;12.280;2023-11-22T02:59:49;15.82;;;7.18;;
79755;SDS011;69239;50.678;12.280;2023-11-22T03:02:15;13.60;;;6.22;;
79755;SDS011;69239;50.678;12.280;2023-11-22T03:04:42;12.73;;;6.90;;
79755;SDS011;69239;50.678;12.280;2023-11-22T03:07:08;13.20;;;7.25;;
79755;SDS011;69239;50.678;12.280;2023-11-22T03:09:34;10.20;;;5.55;;
79755;SDS011;69239;50.678;12.280;2023-11-22T03:11:59;13.15;;;6.43;;
79755;SDS011;69239;50.678;12.280;2023-11-22T03:14:25;10.82;;;6.43;;
79755;SDS011;69239;50.678;12.280;2023-11-22T03:16:50;10.50;;;5.82;;
79755;SDS011;69239;50.678;12.280;2023-11-22T03:19:15;13.43;;;6.75;;
79755;SDS011;69239;50.678;12.280;2023-11-22T03:21:41;13.27;;;6.85;;
79755;SDS011;69239;50.678;12.280;2023-11-22T03:24:09;11.75;;;6.63;;
79755;SDS011;69239;50.678;12.280;2023-11-22T03:26:34;12.30;;;6.40;;
79755;SDS011;69239;50.678;12.280;2023-11-22T03:29:00;13.00;;;6.82;;
79755;SDS011;69239;50.678;12.280;2023-11-22T03:31:26;12.10;;;6.70;;
79755;SDS011;69239;50.678;12.280;2023-11-22T03:33:52;9.23;;;6.13;;
79755;SDS011;69239;50.678;12.280;2023-11-22T03:36:19;9.32;;;5.43;;
79755;SDS011;69239;50.678;12.280;2023-11-22T03:38:45;10.80;;;5.25;;
79755;SDS011;69239;50.678;12.280;2023-11-22T03:41:10;12.27;;;6.63;;
79755;SDS011;69239;50.678;12.280;2023-11-22T03:43:35;10.85;;;5.78;;
79755;SDS011;69239;50.678;12.280;2023-11-22T03:46:01;11.02;;;5.72;;
79755;SDS011;69239;50.678;12.280;2023-11-22T03:48:27;9.88;;;5.90;;
79755;SDS011;69239;50.678;12.280;2023-11-22T03:50:53;11.70;;;5.40;;
79755;SDS011;69239;50.678;12.280;2023-11-22T03:53:19;10.23;;;5.57;;
79755;SDS011;69239;50.678;12.280;2023-11-22T03:55:46;11.68;;;6.40;;
79755;SDS011;69239;50.678;12.280;2023-11-22T03:58:12;10.45;;;5.32;;
79755;SDS011;69239;50.678;12.280;2023-11-22T04:00:38;10.55;;;5.57;;
79755;SDS011;69239;50.678;12.280;2023-11-22T04:03:03;9.18;;;5.30;;
79755;SDS011;69239;50.678;12.280;2023-11-22T04:05:28;9.75;;;5.90;;
79755;SDS011;69239;50.678;12.280;2023-11-22T04:07:54;10.43;;;5.53;;
79755;SDS011;69239;50.678;12.280;2023-11-22T04:10:21;11.57;;;6.43;;
79755;SDS011;69239;50.678;12.280;2023-11-22T04:12:47;10.13;;;6.22;;
79755;SDS011;69239;50.678;12.280;2023-11-22T04:15:13;10.77;;;6.35;;
79755;SDS011;69239;50.678;12.280;2023-11-22T04:17:39;10.32;;;5.80;;
79755;SDS011;69239;50.678;12.280;2023-11-22T04:20:08;9.23;;;5.30;;
79755;SDS011;69239;50.678;12.280;2023-11-22T04:22:39;10.45;;;6.03;;
79755;SDS011;69239;50.678;12.280;2023-11-22T04:25:05;8.80;;;5.10;;
79755;SDS011;69239;50.678;12.280;2023-11-22T04:27:31;12.65;;;5.43;;
79755;SDS011;69239;50.678;12.280;2023-11-22T04:29:58;12.02;;;5.43;;
79755;SDS011;69239;50.678;12.280;2023-11-22T04:32:23;10.50;;;5.60;;
79755;SDS011;69239;50.678;12.280;2023-11-22T04:34:48;11.35;;;6.03;;
79755;SDS011;69239;50.678;12.280;2023-11-22T04:37:14;12.00;;;5.82;;
79755;SDS011;69239;50.678;12.280;2023-11-22T04:39:39;10.68;;;5.80;;
79755;SDS011;69239;50.678;12.280;2023-11-22T04:42:05;10.85;;;6.55;;
79755;SDS011;69239;50.678;12.280;2023-11-22T04:44:30;11.35;;;5.72;;
79755;SDS011;69239;50.678;12.280;2023-11-22T04:46:57;12.65;;;6.07;;
79755;SDS011;69239;50.678;12.280;2023-11-22T04:49:25;12.88;;;5.93;;
79755;SDS011;69239;50.678;12.280;2023-11-22T04:51:50;10.50;;;5.78;;
79755;SDS011;69239;50.678;12.280;2023-11-22T04:54:16;12.50;;;6.25;;
79755;SDS011;69239;50.678;12.280;2023-11-22T04:56:42;12.60;;;6.60;;
79755;SDS011;69239;50.678;12.280;2023-11-22T04:59:08;11.75;;;5.95;;
79755;SDS011;69239;50.678;12.280;2023-11-22T05:01:34;12.02;;;5.93;;
79755;SDS011;69239;50.678;12.280;2023-11-22T05:03:59;12.32;;;6.45;;
79755;SDS011;69239;50.678;12.280;2023-11-22T05:06:25;12.40;;;6.57;;
79755;SDS011;69239;50.678;12.280;2023-11-22T05:08:52;10.48;;;6.18;;
79755;SDS011;69239;50.678;12.280;2023-11-22T05:11:17;12.18;;;6.75;;
79755;SDS011;69239;50.678;12.280;2023-11-22T05:13:42;13.32;;;6.47;;
79755;SDS011;69239;50.678;12.280;2023-11-22T05:16:08;8.98;;;5.22;;
79755;SDS011;69239;50.678;12.280;2023-11-22T05:18:34;11.02;;;6.32;;
79755;SDS011;69239;50.678;12.280;2023-11-22T05:21:01;12.60;;;6.68;;
79755;SDS011;69239;50.678;12.280;2023-11-22T05:23:28;11.50;;;6.70;;
79755;SDS011;69239;50.678;12.280;2023-11-22T05:25:53;11.95;;;7.28;;
79755;SDS011;69239;50.678;12.280;2023-11-22T05:28:19;12.13;;;6.15;;
79755;SDS011;69239;50.678;12.280;2023-11-22T05:30:44;11.68;;;6.53;;
79755;SDS011;69239;50.678;12.280;2023-11-22T05:33:10;12.88;;;6.60;;
79755;SDS011;69239;50.678;12.280;2023-11-22T05:35:35;15.18;;;6.85;;
79755;SDS011;69239;50.678;12.280;2023-11-22T05:38:00;13.60;;;7.13;;
79755;SDS011;69239;50.678;12.280;2023-11-22T05:40:27;13.00;;;6.57;;
79755;SDS011;69239;50.678;12.280;2023-11-22T05:42:52;12.88;;;7.50;;
79755;SDS011;69239;50.678;12.280;2023-11-22T05:45:17;11.38;;;6.28;;
79755;SDS011;69239;50.678;12.280;2023-11-22T05:47:43;12.15;;;6.22;;
79755;SDS011;69239;50.678;12.280;2023-11-22T05:50:08;10.57;;;5.80;;
79755;SDS011;69239;50.678;12.280;2023-11-22T05:52:34;11.23;;;6.30;;
79755;SDS011;69239;50.678;12.280;2023-11-22T05:54:59;10.20;;;6.00;;
79755;SDS011;69239;50.678;12.280;2023-11-22T05:57:29;11.80;;;6.03;;
79755;SDS011;69239;50.678;12.280;2023-11-22T05:59:55;13.38;;;7.00;;
79755;SDS011;69239;50.678;12.280;2023-11-22T06:02:21;10.20;;;6.30;;
79755;SDS011;69239;50.678;12.280;2023-11-22T06:04:46;13.70;;;5.90;;
79755;SDS011;69239;50.678;12.280;2023-11-22T06:07:12;10.15;;;6.28;;
79755;SDS011;69239;50.678;12.280;2023-11-22T06:09:37;8.95;;;5.80;;
79755;SDS011;69239;50.678;12.280;2023-11-22T06:12:03;11.10;;;6.47;;
79755;SDS011;69239;50.678;12.280;2023-11-22T06:14:28;8.52;;;5.18;;
79755;SDS011;69239;50.678;12.280;2023-11-22T06:16:54;11.25;;;6.72;;
79755;SDS011;69239;50.678;12.280;2023-11-22T06:19:19;12.85;;;6.80;;
79755;SDS011;69239;50.678;12.280;2023-11-22T06:21:45;11.52;;;6.75;;
79755;SDS011;69239;50.678;12.280;2023-11-22T06:24:11;11.10;;;6.38;;
79755;SDS011;69239;50.678;12.280;2023-11-22T06:26:41;10.55;;;6.00;;
79755;SDS011;69239;50.678;12.280;2023-11-22T06:29:10;9.85;;;6.15;;
79755;SDS011;69239;50.678;12.280;2023-11-22T06:31:36;11.88;;;5.50;;
79755;SDS011;69239;50.678;12.280;2023-11-22T06:34:01;14.18;;;6.45;;
79755;SDS011;69239;50.678;12.280;2023-11-22T06:36:27;12.52;;;6.55;;
79755;SDS011;69239;50.678;12.280;2023-11-22T06:38:53;13.15;;;6.72;;
79755;SDS011;69239;50.678;12.280;2023-11-22T06:41:19;12.43;;;6.90;;
79755;SDS011;69239;50.678;12.280;2023-11-22T06:43:47;10.68;;;6.15;;
79755;SDS011;69239;50.678;12.280;2023-11-22T06:46:12;8.98;;;5.30;;
79755;SDS011;69239;50.678;12.280;2023-11-22T06:48:41;13.25;;;6.32;;
79755;SDS011;69239;50.678;12.280;2023-11-22T06:51:06;10.23;;;5.68;;
79755;SDS011;69239;50.678;12.280;2023-11-22T06:53:32;12.10;;;6.40;;
79755;SDS011;69239;50.678;12.280;2023-11-22T06:55:57;10.77;;;6.32;;
79755;SDS011;69239;50.678;12.280;2023-11-22T06:58:22;9.82;;;6.00;;
79755;SDS011;69239;50.678;12.280;2023-11-22T07:00:48;10.90;;;6.07;;
79755;SDS011;69239;50.678;12.280;2023-11-22T07:03:13;10.77;;;6.15;;
79755;SDS011;69239;50.678;12.280;2023-11-22T07:05:39;11.15;;;5.63;;
79755;SDS011;69239;50.678;12.280;2023-11-22T07:08:05;12.10;;;6.53;;
79755;SDS011;69239;50.678;12.280;2023-11-22T07:10:30;10.45;;;6.35;;
79755;SDS011;69239;50.678;12.280;2023-11-22T07:12:59;10.57;;;6.18;;
79755;SDS011;69239;50.678;12.280;2023-11-22T07:15:28;15.52;;;6.35;;
79755;SDS011;69239;50.678;12.280;2023-11-22T07:17:54;12.70;;;7.00;;
79755;SDS011;69239;50.678;12.280;2023-11-22T07:20:20;11.05;;;5.85;;
79755;SDS011;69239;50.678;12.280;2023-11-22T07:22:45;13.27;;;7.10;;
79755;SDS011;69239;50.678;12.280;2023-11-22T07:25:11;12.52;;;7.43;;
79755;SDS011;69239;50.678;12.280;2023-11-22T07:27:49;12.88;;;6.43;;
79755;SDS011;69239;50.678;12.280;2023-11-22T07:30:16;11.73;;;6.05;;
79755;SDS011;69239;50.678;12.280;2023-11-22T07:32:44;10.73;;;6.30;;
79755;SDS011;69239;50.678;12.280;2023-11-22T07:35:10;13.98;;;6.38;;
79755;SDS011;69239;50.678;12.280;2023-11-22T07:37:36;12.82;;;7.25;;
79755;SDS011;69239;50.678;12.280;2023-11-22T07:40:07;13.70;;;6.93;;
79755;SDS011;69239;50.678;12.280;2023-11-22T07:42:35;14.55;;;7.05;;
79755;SDS011;69239;50.678;12.280;2023-11-22T07:45:01;17.98;;;7.75;;
79755;SDS011;69239;50.678;12.280;2023-11-22T07:47:27;13.07;;;6.88;;
79755;SDS011;69239;50.678;12.280;2023-11-22T07:49:53;12.70;;;7.47;;
79755;SDS011;69239;50.678;12.280;2023-11-22T07:52:20;13.13;;;6.97;;
79755;SDS011;69239;50.678;12.280;2023-11-22T07:54:46;15.32;;;7.28;;
79755;SDS011;69239;50.678;12.280;2023-11-22T07:57:12;14.95;;;6.78;;
79755;SDS011;69239;50.678;12.280;2023-11-22T07:59:38;14.57;;;7.22;;
79755;SDS011;69239;50.678;12.280;2023-11-22T08:02:04;17.13;;;7.43;;
79755;SDS011;69239;50.678;12.280;2023-11-22T08:04:35;13.73;;;7.60;;
79755;SDS011;69239;50.678;12.280;2023-11-22T08:07:01;18.48;;;7.82;;
79755;SDS011;69239;50.678;12.280;2023-11-22T08:09:26;15.80;;;6.57;;
79755;SDS011;69239;50.678;12.280;2023-11-22T08:11:58;13.48;;;6.78;;
79755;SDS011;69239;50.678;12.280;2023-11-22T08:14:26;14.35;;;7.75;;
79755;SDS011;69239;50.678;12.280;2023-11-22T08:16:53;16.25;;;8.23;;
79755;SDS011;69239;50.678;12.280;2023-11-22T08:19:19;15.98;;;6.90;;
79755;SDS011;69239;50.678;12.280;2023-11-22T08:21:44;14.50;;;7.05;;
79755;SDS011;69239;50.678;12.280;2023-11-22T08:24:09;12.52;;;6.68;;
79755;SDS011;69239;50.678;12.280;2023-11-22T08:26:38;15.85;;;6.90;;
79755;SDS011;69239;50.678;12.280;2023-11-22T08:29:04;14.25;;;7.35;;
79755;SDS011;69239;50.678;12.280;2023-11-22T08:31:30;12.23;;;6.65;;
79755;SDS011;69239;50.678;12.280;2023-11-22T08:33:55;11.60;;;6.40;;
79755;SDS011;69239;50.678;12.280;2023-11-22T08:36:21;16.25;;;7.38;;
79755;SDS011;69239;50.678;12.280;2023-11-22T08:38:48;15.85;;;7.78;;
79755;SDS011;69239;50.678;12.280;2023-11-22T08:41:14;13.85;;;6.82;;
79755;SDS011;69239;50.678;12.280;2023-11-22T08:43:40;15.23;;;7.15;;
79755;SDS011;69239;50.678;12.280;2023-11-22T08:46:06;16.85;;;7.68;;
79755;SDS011;69239;50.678;12.280;2023-11-22T08:48:34;14.10;;;7.32;;
79755;SDS011;69239;50.678;12.280;2023-11-22T08:51:00;14.38;;;7.47;;
79755;SDS011;69239;50.678;12.280;2023-11-22T08:53:26;14.18;;;6.80;;
79755;SDS011;69239;50.678;12.280;2023-11-22T08:55:52;14.60;;;6.95;;
79755;SDS011;69239;50.678;12.280;2023-11-22T08:58:19;16.85;;;8.10;;
79755;SDS011;69239;50.678;12.280;2023-11-22T09:00:45;14.20;;;6.68;;
79755;SDS011;69239;50.678;12.280;2023-11-22T09:03:11;12.60;;;6.95;;
79755;SDS011;69239;50.678;12.280;2023-11-22T09:05:41;14.65;;;7.22;;
79755;SDS011;69239;50.678;12.280;2023-11-22T09:08:11;15.18;;;8.05;;
79755;SDS011;69239;50.678;12.280;2023-11-22T09:10:39;14.02;;;6.82;;
79755;SDS011;69239;50.678;12.280;2023-11-22T09:13:07;14.25;;;7.28;;
79755;SDS011;69239;50.678;12.280;2023-11-22T09:15:33;15.30;;;7.28;;
79755;SDS011;69239;50.678;12.280;2023-11-22T09:18:00;15.48;;;7.32;;
79755;SDS011;69239;50.678;12.280;2023-11-22T09:20:26;12.93;;;6.75;;
79755;SDS011;69239;50.678;12.280;2023-11-22T09:22:52;16.13;;;7.60;;
79755;SDS011;69239;50.678;12.280;2023-11-22T09:25:23;14.85;;;6.72;;
79755;SDS011;69239;50.678;12.280;2023-11-22T09:27:50;19.45;;;8.52;;
79755;SDS011;69239;50.678;12.280;2023-11-22T09:30:20;14.45;;;7.30;;
79755;SDS011;69239;50.678;12.280;2023-11-22T09:35:36;14.63;;;7.15;;
79755;SDS011;69239;50.678;12.280;2023-11-22T09:38:03;15.93;;;8.13;;
79755;SDS011;69239;50.678;12.280;2023-11-22T09:40:30;16.48;;;8.43;;
79755;SDS011;69239;50.678;12.280;2023-11-22T09:42:59;14.55;;;7.70;;
79755;SDS011;69239;50.678;12.280;2023-11-22T09:45:27;15.50;;;7.90;;
79755;SDS011;69239;50.678;12.280;2023-11-22T09:47:52;15.48;;;7.75;;
79755;SDS011;69239;50.678;12.280;2023-11-22T09:50:20;16.30;;;7.85;;
79755;SDS011;69239;50.678;12.280;2023-11-22T09:52:49;13.55;;;7.45;;
79755;SDS011;69239;50.678;12.280;2023-11-22T09:55:19;16.38;;;8.60;;
79755;SDS011;69239;50.678;12.280;2023-11-22T09:57:47;17.48;;;8.75;;
79755;SDS011;69239;50.678;12.280;2023-11-22T10:00:13;17.45;;;7.80;;
79755;SDS011;69239;50.678;12.280;2023-11-22T10:02:44;14.63;;;8.07;;
79755;SDS011;69239;50.678;12.280;2023-11-22T10:05:10;17.20;;;8.68;;
79755;SDS011;69239;50.678;12.280;2023-11-22T10:07:36;17.48;;;8.40;;
79755;SDS011;69239;50.678;12.280;2023-11-22T10:10:03;16.27;;;7.55;;
79755;SDS011;69239;50.678;12.280;2023-11-22T10:12:31;15.90;;;7.03;;
79755;SDS011;69239;50.678;12.280;2023-11-22T10:15:11;14.30;;;7.68;;
79755;SDS011;69239;50.678;12.280;2023-11-22T10:17:47;14.02;;;7.93;;
79755;SDS011;69239;50.678;12.280;2023-11-22T10:20:22;15.18;;;7.57;;
79755;SDS011;69239;50.678;12.280;2023-11-22T10:22:48;16.67;;;7.57;;
79755;SDS011;69239;50.678;12.280;2023-11-22T10:25:17;15.25;;;7.20;;
79755;SDS011;69239;50.678;12.280;2023-11-22T10:27:46;16.60;;;8.48;;
79755;SDS011;69239;50.678;12.280;2023-11-22T10:30:16;14.93;;;7.40;;
79755;SDS011;69239;50.678;12.280;2023-11-22T10:32:43;16.05;;;8.32;;
79755;SDS011;69239;50.678;12.280;2023-11-22T10:35:10;15.35;;;8.30;;
79755;SDS011;69239;50.678;12.280;2023-11-22T10:37:36;15.05;;;7.47;;
79755;SDS011;69239;50.678;12.280;2023-11-22T10:40:02;15.25;;;7.68;;
79755;SDS011;69239;50.678;12.280;2023-11-22T10:42:31;14.98;;;7.32;;
79755;SDS011;69239;50.678;12.280;2023-11-22T10:44:58;16.77;;;8.77;;
79755;SDS011;69239;50.678;12.280;2023-11-22T10:47:28;17.50;;;8.02;;
79755;SDS011;69239;50.678;12.280;2023-11-22T10:49:55;15.65;;;7.90;;
79755;SDS011;69239;50.678;12.280;2023-11-22T10:52:21;14.63;;;7.25;;
79755;SDS011;69239;50.678;12.280;2023-11-22T10:54:54;18.33;;;7.63;;
79755;SDS011;69239;50.678;12.280;2023-11-22T10:57:26;14.95;;;7.65;;
79755;SDS011;69239;50.678;12.280;2023-11-22T11:00:02;15.63;;;7.28;;
79755;SDS011;69239;50.678;12.280;2023-11-22T11:02:35;20.83;;;8.98;;
79755;SDS011;69239;50.678;12.280;2023-11-22T11:05:15;18.48;;;8.18;;
79755;SDS011;69239;50.678;12.280;2023-11-22T11:07:44;17.55;;;8.38;;
79755;SDS011;69239;50.678;12.280;2023-11-22T11:10:16;17.48;;;8.85;;
79755;SDS011;69239;50.678;12.280;2023-11-22T11:12:45;21.35;;;8.65;;
79755;SDS011;69239;50.678;12.280;2023-11-22T11:15:11;18.30;;;8.65;;
79755;SDS011;69239;50.678;12.280;2023-11-22T11:17:37;17.33;;;8.40;;
79755;SDS011;69239;50.678;12.280;2023-11-22T11:20:05;18.67;;;8.90;;
79755;SDS011;69239;50.678;12.280;2023-11-22T11:22:32;18.02;;;7.80;;
79755;SDS011;69239;50.678;12.280;2023-11-22T11:25:04;15.82;;;8.48;;
79755;SDS011;69239;50.678;12.280;2023-11-22T11:27:34;17.23;;;8.57;;
79755;SDS011;69239;50.678;12.280;2023-11-22T11:30:01;16.42;;;8.30;;
79755;SDS011;69239;50.678;12.280;2023-11-22T11:32:47;15.57;;;7.95;;
79755;SDS011;69239;50.678;12.280;2023-11-22T11:35:17;17.35;;;7.85;;
79755;SDS011;69239;50.678;12.280;2023-11-22T11:37:46;20.58;;;9.45;;
79755;SDS011;69239;50.678;12.280;2023-11-22T11:40:33;19.83;;;8.73;;
79755;SDS011;69239;50.678;12.280;2023-11-22T11:42:59;21.30;;;8.68;;
79755;SDS011;69239;50.678;12.280;2023-11-22T11:45:24;17.52;;;7.13;;
79755;SDS011;69239;50.678;12.280;2023-11-22T11:47:50;18.75;;;8.65;;
79755;SDS011;69239;50.678;12.280;2023-11-22T11:50:16;17.25;;;8.73;;
79755;SDS011;69239;50.678;12.280;2023-11-22T11:52:41;20.30;;;8.23;;
79755;SDS011;69239;50.678;12.280;2023-11-22T11:55:07;15.55;;;7.40;;
79755;SDS011;69239;50.678;12.280;2023-11-22T11:57:32;19.15;;;8.07;;
79755;SDS011;69239;50.678;12.280;2023-11-22T11:59:58;15.63;;;8.10;;
79755;SDS011;69239;50.678;12.280;2023-11-22T12:02:24;16.05;;;8.18;;
79755;SDS011;69239;50.678;12.280;2023-11-22T12:04:50;16.45;;;8.50;;
79755;SDS011;69239;50.678;12.280;2023-11-22T12:07:15;16.95;;;8.48;;
79755;SDS011;69239;50.678;12.280;2023-11-22T12:09:40;17.35;;;8.25;;
79755;SDS011;69239;50.678;12.280;2023-11-22T12:12:06;17.70;;;8.98;;
79755;SDS011;69239;50.678;12.280;2023-11-22T12:14:32;17.10;;;7.93;;
79755;SDS011;69239;50.678;12.280;2023-11-22T12:16:58;16.33;;;9.45;;
79755;SDS011;69239;50.678;12.280;2023-11-22T12:19:24;17.00;;;7.93;;
79755;SDS011;69239;50.678;12.280;2023-11-22T12:21:52;17.98;;;7.75;;
79755;SDS011;69239;50.678;12.280;2023-11-22T12:24:17;15.90;;;7.93;;
79755;SDS011;69239;50.678;12.280;2023-11-22T12:26:44;15.60;;;7.47;;
79755;SDS011;69239;50.678;12.280;2023-11-22T12:29:13;17.13;;;7.22;;
79755;SDS011;69239;50.678;12.280;2023-11-22T12:31:47;14.43;;;7.57;;
79755;SDS011;69239;50.678;12.280;2023-11-22T12:36:41;13.10;;;7.05;;
79755;SDS011;69239;50.678;12.280;2023-11-22T12:39:10;14.13;;;7.43;;
79755;SDS011;69239;50.678;12.280;2023-11-22T12:41:45;14.10;;;7.43;;
79755;SDS011;69239;50.678;12.280;2023-11-22T12:44:12;14.13;;;7.60;;
79755;SDS011;69239;50.678;12.280;2023-11-22T12:47:11;15.25;;;7.47;;
79755;SDS011;69239;50.678;12.280;2023-11-22T12:49:42;17.90;;;7.55;;
79755;SDS011;69239;50.678;12.280;2023-11-22T12:52:10;14.18;;;7.40;;
79755;SDS011;69239;50.678;12.280;2023-11-22T12:54:37;15.75;;;7.35;;
79755;SDS011;69239;50.678;12.280;2023-11-22T12:57:03;16.35;;;9.05;;
79755;SDS011;69239;50.678;12.280;2023-11-22T12:59:35;18.23;;;8.05;;
79755;SDS011;69239;50.678;12.280;2023-11-22T13:02:00;15.40;;;7.78;;
79755;SDS011;69239;50.678;12.280;2023-11-22T13:04:27;15.68;;;7.60;;
79755;SDS011;69239;50.678;12.280;2023-11-22T13:06:54;15.80;;;8.57;;
79755;SDS011;69239;50.678;12.280;2023-11-22T13:09:20;16.77;;;7.80;;
79755;SDS011;69239;50.678;12.280;2023-11-22T13:11:45;17.70;;;7.72;;
79755;SDS011;69239;50.678;12.280;2023-11-22T13:14:11;19.25;;;7.90;;
79755;SDS011;69239;50.678;12.280;2023-11-22T13:16:39;18.33;;;8.68;;
79755;SDS011;69239;50.678;12.280;2023-11-22T13:19:05;13.35;;;7.20;;
79755;SDS011;69239;50.678;12.280;2023-11-22T13:21:31;17.13;;;8.60;;
79755;SDS011;69239;50.678;12.280;2023-11-22T13:23:56;16.17;;;8.35;;
79755;SDS011;69239;50.678;12.280;2023-11-22T13:26:24;18.73;;;8.40;;
79755;SDS011;69239;50.678;12.280;2023-11-22T13:28:50;16.77;;;8.02;;
79755;SDS011;69239;50.678;12.280;2023-11-22T13:31:17;16.17;;;7.78;;
79755;SDS011;69239;50.678;12.280;2023-11-22T13:33:42;18.52;;;9.00;;
79755;SDS011;69239;50.678;12.280;2023-11-22T13:36:09;17.08;;;8.50;;
79755;SDS011;69239;50.678;12.280;2023-11-22T13:38:36;15.55;;;8.32;;
79755;SDS011;69239;50.678;12.280;2023-11-22T13:41:02;17.88;;;9.18;;
79755;SDS011;69239;50.678;12.280;2023-11-22T13:43:27;15.27;;;8.07;;
79755;SDS011;69239;50.678;12.280;2023-11-22T13:45:53;15.70;;;7.60;;
79755;SDS011;69239;50.678;12.280;2023-11-22T13:48:18;17.20;;;8.27;;
79755;SDS011;69239;50.678;12.280;2023-11-22T13:50:43;16.92;;;8.35;;
79755;SDS011;69239;50.678;12.280;2023-11-22T13:53:09;13.77;;;7.32;;
79755;SDS011;69239;50.678;12.280;2023-11-22T13:55:36;16.98;;;8.40;;
79755;SDS011;69239;50.678;12.280;2023-11-22T13:58:02;14.73;;;7.30;;
79755;SDS011;69239;50.678;12.280;2023-11-22T14:00:30;14.18;;;6.88;;
79755;SDS011;69239;50.678;12.280;2023-11-22T14:02:59;18.88;;;7.90;;
79755;SDS011;69239;50.678;12.280;2023-11-22T14:05:31;17.23;;;7.90;;
79755;SDS011;69239;50.678;12.280;2023-11-22T14:07:58;12.93;;;7.55;;
79755;SDS011;69239;50.678;12.280;2023-11-22T14:10:23;18.27;;;8.82;;
79755;SDS011;69239;50.678;12.280;2023-11-22T14:12:49;17.38;;;8.65;;
79755;SDS011;69239;50.678;12.280;2023-11-22T14:15:16;16.33;;;7.43;;
79755;SDS011;69239;50.678;12.280;2023-11-22T14:17:41;17.98;;;8.77;;
79755;SDS011;69239;50.678;12.280;2023-11-22T14:20:10;16.30;;;8.02;;
79755;SDS011;69239;50.678;12.280;2023-11-22T14:22:36;15.30;;;7.00;;
79755;SDS011;69239;50.678;12.280;2023-11-22T14:25:02;18.17;;;9.05;;
79755;SDS011;69239;50.678;12.280;2023-11-22T14:27:29;17.92;;;8.00;;
79755;SDS011;69239;50.678;12.280;2023-11-22T14:29:56;15.13;;;7.07;;